sensor_id;sensor_type;location;lat;lon;timestamp;pressure;altitude;pressure_sealevel;temperature;humidity
57656;BME280;43482;53.334;6.744;2022-08-05T00:02:23;101579.59;;;18.70;91.11
57656;BME280;43482;53.334;6.744;2022-08-05T00:04:48;101579.34;;;18.65;93.19
57656;BME280;43482;53.334;6.744;2022-08-05T00:07:14;101564.66;;;18.61;93.36
57656;BME280;43482;53.334;6.744;2022-08-05T00:09:39;101555.28;;;18.65;90.48
57656;BME280;43482;53.334;6.744;2022-08-05T00:12:05;101555.53;;;18.70;90.64
57656;BME280;43482;53.334;6.744;2022-08-05T00:14:30;101558.50;;;18.75;89.48
57656;BME280;43482;53.334;6.744;2022-08-05T00:16:56;101557.31;;;18.78;89.31
57656;BME280;43482;53.334;6.744;2022-08-05T00:19:22;101536.00;;;18.69;88.57
57656;BME280;43482;53.334;6.744;2022-08-05T00:21:47;101541.09;;;18.79;89.42
57656;BME280;43482;53.334;6.744;2022-08-05T00:24:12;101530.84;;;18.83;89.96
57656;BME280;43482;53.334;6.744;2022-08-05T00:26:38;101523.53;;;18.77;89.51
57656;BME280;43482;53.334;6.744;2022-08-05T00:29:03;101515.06;;;18.73;89.31
57656;BME280;43482;53.334;6.744;2022-08-05T00:31:29;101532.50;;;18.84;88.76
57656;BME280;43482;53.334;6.744;2022-08-05T00:33:54;101527.16;;;18.84;89.24
57656;BME280;43482;53.334;6.744;2022-08-05T00:36:19;101528.34;;;18.81;88.42
57656;BME280;43482;53.334;6.744;2022-08-05T00:38:46;101513.69;;;18.77;89.17
57656;BME280;43482;53.334;6.744;2022-08-05T00:41:12;101513.69;;;18.77;90.40
57656;BME280;43482;53.334;6.744;2022-08-05T00:43:37;101506.84;;;18.75;90.26
57656;BME280;43482;53.334;6.744;2022-08-05T00:46:02;101500.66;;;18.74;89.64
57656;BME280;43482;53.334;6.744;2022-08-05T00:48:28;101498.00;;;18.74;88.40
57656;BME280;43482;53.334;6.744;2022-08-05T00:50:53;101489.72;;;18.69;88.58
57656;BME280;43482;53.334;6.744;2022-08-05T00:53:21;101467.97;;;18.57;90.67
57656;BME280;43482;53.334;6.744;2022-08-05T00:55:47;101477.84;;;18.57;91.19
57656;BME280;43482;53.334;6.744;2022-08-05T00:58:13;101502.06;;;18.55;90.00
57656;BME280;43482;53.334;6.744;2022-08-05T01:00:41;101484.06;;;18.42;90.70
57656;BME280;43482;53.334;6.744;2022-08-05T01:03:07;101502.00;;;18.48;92.53
57656;BME280;43482;53.334;6.744;2022-08-05T01:05:33;101490.31;;;18.35;91.58
57656;BME280;43482;53.334;6.744;2022-08-05T01:07:59;101495.56;;;18.43;90.72
57656;BME280;43482;53.334;6.744;2022-08-05T01:10:29;101507.47;;;18.40;90.56
57656;BME280;43482;53.334;6.744;2022-08-05T01:13:04;101516.66;;;18.38;90.05
57656;BME280;43482;53.334;6.744;2022-08-05T01:15:34;101527.16;;;18.39;90.79
57656;BME280;43482;53.334;6.744;2022-08-05T01:18:06;101532.34;;;18.41;90.63
57656;BME280;43482;53.334;6.744;2022-08-05T01:23:56;101532.81;;;18.44;90.37
57656;BME280;43482;53.334;6.744;2022-08-05T01:29:20;101542.56;;;18.37;92.75
57656;BME280;43482;53.334;6.744;2022-08-05T01:31:53;101543.84;;;18.41;91.54
57656;BME280;43482;53.334;6.744;2022-08-05T01:34:33;101541.81;;;18.43;89.24
57656;BME280;43482;53.334;6.744;2022-08-05T01:37:13;101543.50;;;18.44;89.42
57656;BME280;43482;53.334;6.744;2022-08-05T01:39:41;101559.31;;;18.46;90.78
57656;BME280;43482;53.334;6.744;2022-08-05T01:42:12;101562.81;;;18.46;88.63
57656;BME280;43482;53.334;6.744;2022-08-05T01:44:39;101553.81;;;18.47;87.99
57656;BME280;43482;53.334;6.744;2022-08-05T01:47:05;101547.44;;;18.48;88.85
57656;BME280;43482;53.334;6.744;2022-08-05T01:49:32;101551.97;;;18.48;89.43
57656;BME280;43482;53.334;6.744;2022-08-05T01:52:01;101550.97;;;18.49;89.42
57656;BME280;43482;53.334;6.744;2022-08-05T01:54:35;101551.78;;;18.49;87.99
57656;BME280;43482;53.334;6.744;2022-08-05T01:57:04;101549.28;;;18.48;89.23
57656;BME280;43482;53.334;6.744;2022-08-05T01:59:32;101531.78;;;18.45;88.52
57656;BME280;43482;53.334;6.744;2022-08-05T02:01:59;101519.25;;;18.46;89.88
57656;BME280;43482;53.334;6.744;2022-08-05T02:04:27;101524.16;;;18.42;90.05
57656;BME280;43482;53.334;6.744;2022-08-05T02:06:53;101543.38;;;18.38;90.95
57656;BME280;43482;53.334;6.744;2022-08-05T02:09:19;101527.63;;;18.28;89.18
57656;BME280;43482;53.334;6.744;2022-08-05T02:14:31;101534.38;;;18.39;90.21
57656;BME280;43482;53.334;6.744;2022-08-05T02:17:04;101544.97;;;18.32;89.70
57656;BME280;43482;53.334;6.744;2022-08-05T02:19:37;101529.19;;;18.22;91.31
57656;BME280;43482;53.334;6.744;2022-08-05T02:24:47;101528.09;;;18.32;90.49
57656;BME280;43482;53.334;6.744;2022-08-05T02:27:14;101521.38;;;18.21;90.84
57656;BME280;43482;53.334;6.744;2022-08-05T02:29:43;101517.25;;;18.18;90.57
57656;BME280;43482;53.334;6.744;2022-08-05T02:32:09;101520.19;;;18.23;92.00
57656;BME280;43482;53.334;6.744;2022-08-05T02:34:36;101521.38;;;18.21;91.39
57656;BME280;43482;53.334;6.744;2022-08-05T02:37:03;101520.53;;;18.20;91.37
57656;BME280;43482;53.334;6.744;2022-08-05T02:39:33;101506.16;;;18.06;90.85
57656;BME280;43482;53.334;6.744;2022-08-05T02:42:01;101521.28;;;18.14;90.68
57656;BME280;43482;53.334;6.744;2022-08-05T02:44:29;101509.56;;;18.15;90.10
57656;BME280;43482;53.334;6.744;2022-08-05T02:46:57;101532.06;;;18.21;91.07
57656;BME280;43482;53.334;6.744;2022-08-05T02:49:24;101530.78;;;18.17;90.69
57656;BME280;43482;53.334;6.744;2022-08-05T02:51:50;101541.91;;;18.20;91.53
57656;BME280;43482;53.334;6.744;2022-08-05T02:54:16;101529.00;;;18.09;90.27
57656;BME280;43482;53.334;6.744;2022-08-05T02:56:42;101541.28;;;18.18;90.89
57656;BME280;43482;53.334;6.744;2022-08-05T02:59:09;101564.28;;;18.19;89.49
57656;BME280;43482;53.334;6.744;2022-08-05T03:01:36;101557.94;;;18.20;88.38
57656;BME280;43482;53.334;6.744;2022-08-05T03:04:07;101544.56;;;18.20;89.08
57656;BME280;43482;53.334;6.744;2022-08-05T03:06:34;101537.09;;;18.16;88.82
57656;BME280;43482;53.334;6.744;2022-08-05T03:09:00;101526.63;;;18.14;90.19
57656;BME280;43482;53.334;6.744;2022-08-05T03:11:26;101544.41;;;18.22;89.28
57656;BME280;43482;53.334;6.744;2022-08-05T03:13:52;101564.13;;;18.21;89.86
57656;BME280;43482;53.334;6.744;2022-08-05T03:16:19;101556.28;;;18.19;89.48
57656;BME280;43482;53.334;6.744;2022-08-05T03:18:45;101551.97;;;18.18;90.56
57656;BME280;43482;53.334;6.744;2022-08-05T03:21:10;101554.50;;;18.12;89.32
57656;BME280;43482;53.334;6.744;2022-08-05T03:23:37;101573.50;;;18.17;89.51
57656;BME280;43482;53.334;6.744;2022-08-05T03:26:04;101576.84;;;18.19;88.80
57656;BME280;43482;53.334;6.744;2022-08-05T03:28:30;101572.13;;;18.21;89.28
57656;BME280;43482;53.334;6.744;2022-08-05T03:30:56;101567.53;;;18.15;90.64
57656;BME280;43482;53.334;6.744;2022-08-05T03:33:24;101578.69;;;18.18;91.07
57656;BME280;43482;53.334;6.744;2022-08-05T03:35:50;101571.84;;;18.16;90.45
57656;BME280;43482;53.334;6.744;2022-08-05T03:38:16;101567.16;;;18.18;90.82
57656;BME280;43482;53.334;6.744;2022-08-05T03:40:43;101558.22;;;18.11;90.75
57656;BME280;43482;53.334;6.744;2022-08-05T03:43:09;101548.72;;;18.08;89.70
57656;BME280;43482;53.334;6.744;2022-08-05T03:45:34;101559.34;;;18.16;88.94
57656;BME280;43482;53.334;6.744;2022-08-05T03:48:00;101550.28;;;18.17;90.42
57656;BME280;43482;53.334;6.744;2022-08-05T03:50:41;101549.63;;;18.15;90.40
57656;BME280;43482;53.334;6.744;2022-08-05T03:53:12;101552.31;;;18.15;89.67
57656;BME280;43482;53.334;6.744;2022-08-05T03:55:43;101546.31;;;18.13;90.36
57656;BME280;43482;53.334;6.744;2022-08-05T03:58:11;101537.13;;;18.01;90.75
57656;BME280;43482;53.334;6.744;2022-08-05T04:00:38;101552.88;;;18.11;90.77
57656;BME280;43482;53.334;6.744;2022-08-05T04:03:05;101558.59;;;18.07;93.25
57656;BME280;43482;53.334;6.744;2022-08-05T04:05:32;101556.56;;;18.09;93.06
57656;BME280;43482;53.334;6.744;2022-08-05T04:08:04;101553.69;;;18.11;93.91
57656;BME280;43482;53.334;6.744;2022-08-05T04:10:30;101553.88;;;18.09;92.52
57656;BME280;43482;53.334;6.744;2022-08-05T04:12:56;101525.47;;;17.94;91.94
57656;BME280;43482;53.334;6.744;2022-08-05T04:15:22;101544.59;;;18.05;93.60
57656;BME280;43482;53.334;6.744;2022-08-05T04:17:48;101539.03;;;17.92;96.35
57656;BME280;43482;53.334;6.744;2022-08-05T04:20:18;101533.22;;;17.88;96.38
57656;BME280;43482;53.334;6.744;2022-08-05T04:22:44;101529.53;;;17.89;95.41
57656;BME280;43482;53.334;6.744;2022-08-05T04:25:09;101527.06;;;17.88;96.37
57656;BME280;43482;53.334;6.744;2022-08-05T04:27:34;101531.75;;;17.86;96.41
57656;BME280;43482;53.334;6.744;2022-08-05T04:30:00;101541.44;;;17.79;96.91
57656;BME280;43482;53.334;6.744;2022-08-05T04:32:25;101541.81;;;17.76;97.45
57656;BME280;43482;53.334;6.744;2022-08-05T04:34:51;101549.34;;;17.72;98.12
57656;BME280;43482;53.334;6.744;2022-08-05T04:37:16;101546.50;;;17.74;97.43
57656;BME280;43482;53.334;6.744;2022-08-05T04:39:42;101552.13;;;17.79;95.60
57656;BME280;43482;53.334;6.744;2022-08-05T04:42:07;101542.28;;;17.79;96.79
57656;BME280;43482;53.334;6.744;2022-08-05T04:44:33;101553.63;;;17.81;97.06
57656;BME280;43482;53.334;6.744;2022-08-05T04:46:58;101559.13;;;17.80;98.26
57656;BME280;43482;53.334;6.744;2022-08-05T04:49:24;101540.22;;;17.66;95.26
57656;BME280;43482;53.334;6.744;2022-08-05T04:51:49;101539.69;;;17.71;93.71
57656;BME280;43482;53.334;6.744;2022-08-05T04:54:14;101559.91;;;17.88;94.37
57656;BME280;43482;53.334;6.744;2022-08-05T04:56:40;101565.09;;;17.90;94.07
57656;BME280;43482;53.334;6.744;2022-08-05T04:59:06;101561.41;;;17.91;94.95
57656;BME280;43482;53.334;6.744;2022-08-05T05:01:31;101558.56;;;17.93;95.42
57656;BME280;43482;53.334;6.744;2022-08-05T05:03:57;101565.00;;;17.98;94.10
57656;BME280;43482;53.334;6.744;2022-08-05T05:06:22;101561.59;;;18.04;93.29
57656;BME280;43482;53.334;6.744;2022-08-05T05:08:47;101568.06;;;18.10;94.17
57656;BME280;43482;53.334;6.744;2022-08-05T05:11:13;101574.88;;;18.13;94.30
57656;BME280;43482;53.334;6.744;2022-08-05T05:13:38;101565.50;;;18.17;92.76
57656;BME280;43482;53.334;6.744;2022-08-05T05:16:04;101575.25;;;18.24;91.70
57656;BME280;43482;53.334;6.744;2022-08-05T05:18:29;101577.19;;;18.30;92.62
57656;BME280;43482;53.334;6.744;2022-08-05T05:20:54;101585.31;;;18.37;92.82
57656;BME280;43482;53.334;6.744;2022-08-05T05:23:20;101578.13;;;18.38;92.40
57656;BME280;43482;53.334;6.744;2022-08-05T05:25:45;101590.41;;;18.47;92.38
57656;BME280;43482;53.334;6.744;2022-08-05T05:28:10;101587.09;;;18.45;92.94
57656;BME280;43482;53.334;6.744;2022-08-05T05:30:37;101586.88;;;18.46;93.59
57656;BME280;43482;53.334;6.744;2022-08-05T05:33:04;101586.69;;;18.48;93.09
57656;BME280;43482;53.334;6.744;2022-08-05T05:35:31;101581.34;;;18.48;92.93
57656;BME280;43482;53.334;6.744;2022-08-05T05:37:59;101582.56;;;18.45;94.91
57656;BME280;43482;53.334;6.744;2022-08-05T05:40:26;101585.22;;;18.45;94.50
57656;BME280;43482;53.334;6.744;2022-08-05T05:42:51;101575.91;;;18.41;93.45
57656;BME280;43482;53.334;6.744;2022-08-05T05:45:17;101584.19;;;18.46;93.15
57656;BME280;43482;53.334;6.744;2022-08-05T05:47:43;101578.84;;;18.46;92.56
57656;BME280;43482;53.334;6.744;2022-08-05T05:50:10;101569.38;;;18.44;91.35
57656;BME280;43482;53.334;6.744;2022-08-05T05:52:36;101568.63;;;18.50;91.64
57656;BME280;43482;53.334;6.744;2022-08-05T05:55:03;101579.97;;;18.52;90.74
57656;BME280;43482;53.334;6.744;2022-08-05T05:57:29;101579.06;;;18.45;90.12
57656;BME280;43482;53.334;6.744;2022-08-05T05:59:55;101583.84;;;18.49;90.02
57656;BME280;43482;53.334;6.744;2022-08-05T06:02:20;101573.16;;;18.49;90.16
57656;BME280;43482;53.334;6.744;2022-08-05T06:04:46;101570.50;;;18.49;89.70
57656;BME280;43482;53.334;6.744;2022-08-05T06:07:11;101563.75;;;18.54;89.89
57656;BME280;43482;53.334;6.744;2022-08-05T06:09:36;101554.38;;;18.58;89.98
57656;BME280;43482;53.334;6.744;2022-08-05T06:12:02;101553.59;;;18.64;90.40
57656;BME280;43482;53.334;6.744;2022-08-05T06:14:28;101564.50;;;18.62;90.23
57656;BME280;43482;53.334;6.744;2022-08-05T06:16:53;101551.22;;;18.69;88.80
57656;BME280;43482;53.334;6.744;2022-08-05T06:19:19;101563.22;;;18.88;88.88
57656;BME280;43482;53.334;6.744;2022-08-05T06:21:44;101570.72;;;19.14;87.64
57656;BME280;43482;53.334;6.744;2022-08-05T06:24:10;101554.78;;;19.27;85.92
57656;BME280;43482;53.334;6.744;2022-08-05T06:26:36;101574.66;;;19.61;85.22
57656;BME280;43482;53.334;6.744;2022-08-05T06:29:01;101569.38;;;19.89;85.38
57656;BME280;43482;53.334;6.744;2022-08-05T06:31:27;101575.28;;;20.06;85.02
57656;BME280;43482;53.334;6.744;2022-08-05T06:33:52;101549.16;;;20.15;83.45
57656;BME280;43482;53.334;6.744;2022-08-05T06:36:17;101571.81;;;20.41;80.99
57656;BME280;43482;53.334;6.744;2022-08-05T06:38:43;101571.41;;;20.44;81.39
57656;BME280;43482;53.334;6.744;2022-08-05T06:41:08;101576.88;;;20.64;80.57
57656;BME280;43482;53.334;6.744;2022-08-05T06:43:35;101579.88;;;20.82;79.67
57656;BME280;43482;53.334;6.744;2022-08-05T06:46:00;101583.56;;;20.81;78.84
57656;BME280;43482;53.334;6.744;2022-08-05T06:48:26;101585.41;;;20.74;79.19
57656;BME280;43482;53.334;6.744;2022-08-05T06:50:51;101588.75;;;20.83;79.22
57656;BME280;43482;53.334;6.744;2022-08-05T06:53:16;101571.88;;;20.95;79.32
57656;BME280;43482;53.334;6.744;2022-08-05T06:55:42;101591.88;;;21.48;79.87
57656;BME280;43482;53.334;6.744;2022-08-05T06:58:08;101594.31;;;22.49;78.42
57656;BME280;43482;53.334;6.744;2022-08-05T07:00:33;101589.38;;;23.43;72.64
57656;BME280;43482;53.334;6.744;2022-08-05T07:02:59;101592.28;;;23.03;71.03
57656;BME280;43482;53.334;6.744;2022-08-05T07:05:24;101595.19;;;23.02;72.22
57656;BME280;43482;53.334;6.744;2022-08-05T07:07:50;101593.66;;;23.51;71.43
57656;BME280;43482;53.334;6.744;2022-08-05T07:10:15;101600.25;;;24.55;68.55
57656;BME280;43482;53.334;6.744;2022-08-05T07:12:41;101607.09;;;24.33;65.76
57656;BME280;43482;53.334;6.744;2022-08-05T07:15:25;101585.72;;;24.56;68.53
57656;BME280;43482;53.334;6.744;2022-08-05T07:18:09;101607.84;;;25.98;63.78
57656;BME280;43482;53.334;6.744;2022-08-05T07:20:34;101620.72;;;26.90;59.22
57656;BME280;43482;53.334;6.744;2022-08-05T07:22:59;101621.16;;;27.56;58.71
57656;BME280;43482;53.334;6.744;2022-08-05T07:25:25;101619.75;;;27.54;56.94
57656;BME280;43482;53.334;6.744;2022-08-05T07:27:52;101617.78;;;25.74;59.56
57656;BME280;43482;53.334;6.744;2022-08-05T07:30:17;101614.56;;;25.41;61.45
57656;BME280;43482;53.334;6.744;2022-08-05T07:32:43;101610.09;;;26.01;60.58
57656;BME280;43482;53.334;6.744;2022-08-05T07:35:12;101616.53;;;26.47;59.27
57656;BME280;43482;53.334;6.744;2022-08-05T07:37:38;101603.16;;;26.93;58.42
57656;BME280;43482;53.334;6.744;2022-08-05T07:40:05;101610.56;;;27.72;58.42
57656;BME280;43482;53.334;6.744;2022-08-05T07:42:31;101614.41;;;28.65;53.60
57656;BME280;43482;53.334;6.744;2022-08-05T07:44:57;101614.34;;;28.60;54.68
57656;BME280;43482;53.334;6.744;2022-08-05T07:47:23;101620.28;;;28.18;55.33
57656;BME280;43482;53.334;6.744;2022-08-05T07:49:48;101610.97;;;27.46;54.38
57656;BME280;43482;53.334;6.744;2022-08-05T07:52:17;101606.75;;;26.70;56.65
57656;BME280;43482;53.334;6.744;2022-08-05T07:54:42;101600.19;;;26.42;57.72
57656;BME280;43482;53.334;6.744;2022-08-05T07:57:08;101596.78;;;25.88;59.57
57656;BME280;43482;53.334;6.744;2022-08-05T07:59:33;101605.66;;;25.64;59.93
57656;BME280;43482;53.334;6.744;2022-08-05T08:01:58;101601.63;;;25.43;61.05
57656;BME280;43482;53.334;6.744;2022-08-05T08:04:25;101597.06;;;25.44;61.78
57656;BME280;43482;53.334;6.744;2022-08-05T08:06:51;101604.31;;;26.56;59.39
57656;BME280;43482;53.334;6.744;2022-08-05T08:09:16;101607.69;;;28.12;55.97
57656;BME280;43482;53.334;6.744;2022-08-05T08:11:41;101612.13;;;29.56;53.05
57656;BME280;43482;53.334;6.744;2022-08-05T08:14:07;101609.31;;;30.58;49.78
57656;BME280;43482;53.334;6.744;2022-08-05T08:16:32;101615.22;;;31.33;49.54
57656;BME280;43482;53.334;6.744;2022-08-05T08:18:57;101608.94;;;30.39;48.62
57656;BME280;43482;53.334;6.744;2022-08-05T08:21:23;101609.25;;;30.05;49.83
57656;BME280;43482;53.334;6.744;2022-08-05T08:23:49;101604.91;;;29.39;49.74
57656;BME280;43482;53.334;6.744;2022-08-05T08:26:14;101618.09;;;29.25;51.29
57656;BME280;43482;53.334;6.744;2022-08-05T08:28:39;101605.97;;;30.03;50.46
57656;BME280;43482;53.334;6.744;2022-08-05T08:31:05;101605.72;;;30.57;46.79
57656;BME280;43482;53.334;6.744;2022-08-05T08:33:30;101604.28;;;30.97;48.47
57656;BME280;43482;53.334;6.744;2022-08-05T08:35:56;101608.75;;;30.66;49.44
57656;BME280;43482;53.334;6.744;2022-08-05T08:38:21;101618.19;;;31.11;48.61
57656;BME280;43482;53.334;6.744;2022-08-05T08:40:46;101619.59;;;31.24;48.46
57656;BME280;43482;53.334;6.744;2022-08-05T08:43:15;101623.53;;;30.75;46.87
57656;BME280;43482;53.334;6.744;2022-08-05T08:45:42;101619.69;;;28.99;51.54
57656;BME280;43482;53.334;6.744;2022-08-05T08:48:10;101627.56;;;30.14;51.92
57656;BME280;43482;53.334;6.744;2022-08-05T08:50:39;101633.28;;;31.54;49.87
57656;BME280;43482;53.334;6.744;2022-08-05T08:53:06;101627.97;;;32.55;46.67
57656;BME280;43482;53.334;6.744;2022-08-05T08:55:33;101625.38;;;33.74;44.57
57656;BME280;43482;53.334;6.744;2022-08-05T08:58:02;101628.69;;;32.76;45.74
57656;BME280;43482;53.334;6.744;2022-08-05T09:00:28;101635.59;;;33.63;44.94
57656;BME280;43482;53.334;6.744;2022-08-05T09:02:54;101630.00;;;33.39;44.86
57656;BME280;43482;53.334;6.744;2022-08-05T09:05:20;101638.63;;;32.52;46.35
57656;BME280;43482;53.334;6.744;2022-08-05T09:07:46;101636.00;;;31.85;46.80
57656;BME280;43482;53.334;6.744;2022-08-05T09:10:12;101635.88;;;32.52;47.39
57656;BME280;43482;53.334;6.744;2022-08-05T09:12:38;101631.00;;;32.44;45.73
57656;BME280;43482;53.334;6.744;2022-08-05T09:15:04;101631.94;;;32.89;44.68
57656;BME280;43482;53.334;6.744;2022-08-05T09:17:31;101634.06;;;32.32;45.02
57656;BME280;43482;53.334;6.744;2022-08-05T09:20:00;101640.94;;;31.47;46.24
57656;BME280;43482;53.334;6.744;2022-08-05T09:22:25;101634.56;;;30.43;47.95
57656;BME280;43482;53.334;6.744;2022-08-05T09:25:01;101643.31;;;30.55;48.31
57656;BME280;43482;53.334;6.744;2022-08-05T09:27:32;101636.25;;;31.27;49.42
57656;BME280;43482;53.334;6.744;2022-08-05T09:29:58;101644.84;;;32.73;45.85
57656;BME280;43482;53.334;6.744;2022-08-05T09:32:33;101651.69;;;33.25;43.88
57656;BME280;43482;53.334;6.744;2022-08-05T09:35:15;101647.81;;;34.29;42.84
57656;BME280;43482;53.334;6.744;2022-08-05T09:37:52;101645.13;;;32.66;44.34
57656;BME280;43482;53.334;6.744;2022-08-05T09:40:36;101656.34;;;33.69;43.72
57656;BME280;43482;53.334;6.744;2022-08-05T09:43:05;101650.28;;;34.79;42.22
57656;BME280;43482;53.334;6.744;2022-08-05T09:45:35;101646.53;;;35.32;40.12
57656;BME280;43482;53.334;6.744;2022-08-05T09:48:20;101655.72;;;35.41;40.62
57656;BME280;43482;53.334;6.744;2022-08-05T09:50:53;101662.22;;;33.47;42.45
57656;BME280;43482;53.334;6.744;2022-08-05T09:53:19;101658.84;;;34.24;41.34
57656;BME280;43482;53.334;6.744;2022-08-05T09:55:45;101665.78;;;34.89;40.06
57656;BME280;43482;53.334;6.744;2022-08-05T09:58:12;101665.09;;;34.54;39.99
57656;BME280;43482;53.334;6.744;2022-08-05T10:00:37;101665.41;;;34.23;40.65
57656;BME280;43482;53.334;6.744;2022-08-05T10:03:10;101674.25;;;33.46;41.13
57656;BME280;43482;53.334;6.744;2022-08-05T10:05:35;101670.97;;;32.99;41.52
57656;BME280;43482;53.334;6.744;2022-08-05T10:08:04;101661.13;;;32.23;43.04
57656;BME280;43482;53.334;6.744;2022-08-05T10:10:44;101674.31;;;33.41;39.95
57656;BME280;43482;53.334;6.744;2022-08-05T10:13:10;101664.22;;;34.34;40.23
57656;BME280;43482;53.334;6.744;2022-08-05T10:15:38;101685.88;;;33.72;40.05
57656;BME280;43482;53.334;6.744;2022-08-05T10:18:14;101670.88;;;32.50;41.15
57656;BME280;43482;53.334;6.744;2022-08-05T10:20:51;101673.06;;;33.18;40.09
57656;BME280;43482;53.334;6.744;2022-08-05T10:25:46;101678.31;;;33.93;37.10
57656;BME280;43482;53.334;6.744;2022-08-05T10:28:11;101665.31;;;34.63;37.91
57656;BME280;43482;53.334;6.744;2022-08-05T10:30:37;101676.34;;;35.19;37.56
57656;BME280;43482;53.334;6.744;2022-08-05T10:33:04;101671.06;;;35.94;36.01
57656;BME280;43482;53.334;6.744;2022-08-05T10:35:31;101668.38;;;35.89;35.31
57656;BME280;43482;53.334;6.744;2022-08-05T10:37:57;101671.31;;;36.25;32.86
57656;BME280;43482;53.334;6.744;2022-08-05T10:43:06;101688.75;;;36.90;33.33
57656;BME280;43482;53.334;6.744;2022-08-05T10:45:33;101691.69;;;36.52;33.85
57656;BME280;43482;53.334;6.744;2022-08-05T10:48:29;101695.38;;;36.00;34.57
57656;BME280;43482;53.334;6.744;2022-08-05T10:50:57;101691.50;;;36.90;34.33
57656;BME280;43482;53.334;6.744;2022-08-05T10:53:39;101696.09;;;36.80;33.36
57656;BME280;43482;53.334;6.744;2022-08-05T10:56:15;101686.22;;;36.79;33.41
57656;BME280;43482;53.334;6.744;2022-08-05T11:01:36;101701.28;;;36.96;33.63
57656;BME280;43482;53.334;6.744;2022-08-05T11:04:14;101711.94;;;37.61;32.61
57656;BME280;43482;53.334;6.744;2022-08-05T11:09:23;101716.38;;;36.71;32.69
57656;BME280;43482;53.334;6.744;2022-08-05T11:11:53;101722.59;;;36.76;32.38
57656;BME280;43482;53.334;6.744;2022-08-05T11:14:29;101726.50;;;36.29;31.92
57656;BME280;43482;53.334;6.744;2022-08-05T11:19:50;101710.50;;;36.17;33.38
57656;BME280;43482;53.334;6.744;2022-08-05T11:25:26;101749.00;;;37.28;30.44
57656;BME280;43482;53.334;6.744;2022-08-05T11:33:38;101770.66;;;37.20;32.25
57656;BME280;43482;53.334;6.744;2022-08-05T11:36:06;101765.94;;;36.93;32.34
57656;BME280;43482;53.334;6.744;2022-08-05T11:43:59;101765.81;;;36.10;34.78
57656;BME280;43482;53.334;6.744;2022-08-05T11:46:32;101786.34;;;35.42;35.18
57656;BME280;43482;53.334;6.744;2022-08-05T11:49:00;101787.66;;;36.67;34.58
57656;BME280;43482;53.334;6.744;2022-08-05T11:51:27;101784.06;;;36.53;34.84
57656;BME280;43482;53.334;6.744;2022-08-05T11:53:53;101799.63;;;36.11;34.33
57656;BME280;43482;53.334;6.744;2022-08-05T11:56:19;101802.53;;;35.43;36.10
57656;BME280;43482;53.334;6.744;2022-08-05T11:58:46;101805.59;;;34.94;35.77
57656;BME280;43482;53.334;6.744;2022-08-05T12:01:17;101808.78;;;34.48;36.56
57656;BME280;43482;53.334;6.744;2022-08-05T12:03:48;101833.06;;;34.25;36.78
57656;BME280;43482;53.334;6.744;2022-08-05T12:06:21;101818.34;;;34.16;36.29
57656;BME280;43482;53.334;6.744;2022-08-05T12:08:49;101838.09;;;34.08;36.54
57656;BME280;43482;53.334;6.744;2022-08-05T12:11:25;101851.31;;;34.00;36.01
57656;BME280;43482;53.334;6.744;2022-08-05T12:14:04;101844.78;;;33.36;37.72
57656;BME280;43482;53.334;6.744;2022-08-05T12:16:34;101842.94;;;33.01;38.55
57656;BME280;43482;53.334;6.744;2022-08-05T12:19:01;101835.34;;;32.72;39.23
57656;BME280;43482;53.334;6.744;2022-08-05T12:21:34;101837.72;;;33.20;37.85
57656;BME280;43482;53.334;6.744;2022-08-05T12:24:04;101823.84;;;32.86;37.69
57656;BME280;43482;53.334;6.744;2022-08-05T12:26:38;101854.22;;;33.70;38.19
57656;BME280;43482;53.334;6.744;2022-08-05T12:29:06;101842.03;;;33.96;37.12
57656;BME280;43482;53.334;6.744;2022-08-05T12:31:32;101858.34;;;34.51;37.21
57656;BME280;43482;53.334;6.744;2022-08-05T12:34:02;101852.09;;;33.62;36.52
57656;BME280;43482;53.334;6.744;2022-08-05T12:36:27;101859.22;;;33.63;36.56
57656;BME280;43482;53.334;6.744;2022-08-05T12:38:53;101850.34;;;33.81;37.64
57656;BME280;43482;53.334;6.744;2022-08-05T12:41:19;101870.13;;;33.68;37.50
57656;BME280;43482;53.334;6.744;2022-08-05T12:43:53;101866.44;;;33.23;37.71
57656;BME280;43482;53.334;6.744;2022-08-05T12:46:24;101869.69;;;33.35;37.88
57656;BME280;43482;53.334;6.744;2022-08-05T12:48:57;101879.88;;;32.32;39.13
57656;BME280;43482;53.334;6.744;2022-08-05T12:51:23;101878.31;;;31.58;40.67
57656;BME280;43482;53.334;6.744;2022-08-05T12:53:48;101881.66;;;31.85;39.61
57656;BME280;43482;53.334;6.744;2022-08-05T12:56:21;101881.69;;;31.95;38.26
57656;BME280;43482;53.334;6.744;2022-08-05T12:59:10;101889.75;;;31.60;40.23
57656;BME280;43482;53.334;6.744;2022-08-05T13:01:37;101897.63;;;31.03;40.48
57656;BME280;43482;53.334;6.744;2022-08-05T13:04:03;101879.88;;;30.36;42.40
57656;BME280;43482;53.334;6.744;2022-08-05T13:06:29;101894.25;;;30.09;41.92
57656;BME280;43482;53.334;6.744;2022-08-05T13:08:54;101895.34;;;29.42;42.36
57656;BME280;43482;53.334;6.744;2022-08-05T13:11:29;101907.41;;;28.79;43.47
57656;BME280;43482;53.334;6.744;2022-08-05T13:13:57;101913.22;;;28.25;44.33
57656;BME280;43482;53.334;6.744;2022-08-05T13:16:22;101914.56;;;27.70;46.52
57656;BME280;43482;53.334;6.744;2022-08-05T13:18:52;101919.72;;;27.01;48.37
57656;BME280;43482;53.334;6.744;2022-08-05T13:21:18;101925.94;;;26.78;49.99
57656;BME280;43482;53.334;6.744;2022-08-05T13:23:44;101915.19;;;26.41;49.06
57656;BME280;43482;53.334;6.744;2022-08-05T13:26:09;101934.00;;;26.36;49.52
57656;BME280;43482;53.334;6.744;2022-08-05T13:28:35;101938.31;;;26.25;49.35
57656;BME280;43482;53.334;6.744;2022-08-05T13:31:00;101908.44;;;26.01;48.57
57656;BME280;43482;53.334;6.744;2022-08-05T13:33:25;101920.50;;;25.80;48.96